sensor_id;sensor_type;location;lat;lon;timestamp;pressure;altitude;pressure_sealevel;temperature
24278;BMP280;12394;42.692;23.314;2024-01-15T00:02:24;94429.84;;;-0.35
24278;BMP280;12394;42.692;23.314;2024-01-15T00:04:49;94430.41;;;-0.42
24278;BMP280;12394;42.692;23.314;2024-01-15T00:07:15;94418.72;;;-0.39
24278;BMP280;12394;42.692;23.314;2024-01-15T00:09:40;94439.47;;;-0.32
24278;BMP280;12394;42.692;23.314;2024-01-15T00:12:06;94409.94;;;-0.38
24278;BMP280;12394;42.692;23.314;2024-01-15T00:14:32;94427.38;;;-0.32
24278;BMP280;12394;42.692;23.314;2024-01-15T00:16:57;94425.06;;;-0.37
24278;BMP280;12394;42.692;23.314;2024-01-15T00:19:22;94428.91;;;-0.43
24278;BMP280;12394;42.692;23.314;2024-01-15T00:21:49;94429.59;;;-0.46
24278;BMP280;12394;42.692;23.314;2024-01-15T00:24:14;94413.34;;;-0.50
24278;BMP280;12394;42.692;23.314;2024-01-15T00:26:40;94423.25;;;-0.49
24278;BMP280;12394;42.692;23.314;2024-01-15T00:29:08;94428.16;;;-0.43
24278;BMP280;12394;42.692;23.314;2024-01-15T00:31:34;94426.66;;;-0.45
24278;BMP280;12394;42.692;23.314;2024-01-15T00:34:00;94421.22;;;-0.43
24278;BMP280;12394;42.692;23.314;2024-01-15T00:36:26;94424.53;;;-0.42
24278;BMP280;12394;42.692;23.314;2024-01-15T00:38:51;94428.09;;;-0.47
24278;BMP280;12394;42.692;23.314;2024-01-15T00:41:17;94428.50;;;-0.45
24278;BMP280;12394;42.692;23.314;2024-01-15T00:43:44;94428.75;;;-0.50
24278;BMP280;12394;42.692;23.314;2024-01-15T00:46:10;94430.03;;;-0.56
24278;BMP280;12394;42.692;23.314;2024-01-15T00:48:36;94408.22;;;-0.62
24278;BMP280;12394;42.692;23.314;2024-01-15T00:51:03;94408.66;;;-0.60
24278;BMP280;12394;42.692;23.314;2024-01-15T00:53:29;94427.66;;;-0.49
24278;BMP280;12394;42.692;23.314;2024-01-15T00:55:54;94410.47;;;-0.61
24278;BMP280;12394;42.692;23.314;2024-01-15T00:58:20;94421.28;;;-0.55
24278;BMP280;12394;42.692;23.314;2024-01-15T01:00:46;94415.69;;;-0.57
24278;BMP280;12394;42.692;23.314;2024-01-15T01:03:11;94422.81;;;-0.66
24278;BMP280;12394;42.692;23.314;2024-01-15T01:05:37;94417.00;;;-0.63
24278;BMP280;12394;42.692;23.314;2024-01-15T01:08:03;94421.44;;;-0.48
24278;BMP280;12394;42.692;23.314;2024-01-15T01:10:28;94408.31;;;-0.59
24278;BMP280;12394;42.692;23.314;2024-01-15T01:12:54;94425.28;;;-0.42
24278;BMP280;12394;42.692;23.314;2024-01-15T01:15:19;94416.75;;;-0.46
24278;BMP280;12394;42.692;23.314;2024-01-15T01:17:45;94412.34;;;-0.46
24278;BMP280;12394;42.692;23.314;2024-01-15T01:20:11;94409.53;;;-0.40
24278;BMP280;12394;42.692;23.314;2024-01-15T01:22:37;94415.59;;;-0.17
24278;BMP280;12394;42.692;23.314;2024-01-15T01:25:02;94398.56;;;-0.53
24278;BMP280;12394;42.692;23.314;2024-01-15T01:27:28;94406.03;;;-0.48
24278;BMP280;12394;42.692;23.314;2024-01-15T01:29:54;94403.47;;;-0.48
24278;BMP280;12394;42.692;23.314;2024-01-15T01:32:19;94399.22;;;-0.56
24278;BMP280;12394;42.692;23.314;2024-01-15T01:34:45;94396.22;;;-0.58
24278;BMP280;12394;42.692;23.314;2024-01-15T01:37:11;94392.50;;;-0.61
24278;BMP280;12394;42.692;23.314;2024-01-15T01:39:41;94381.47;;;-0.61
24278;BMP280;12394;42.692;23.314;2024-01-15T01:42:06;94382.78;;;-0.67
24278;BMP280;12394;42.692;23.314;2024-01-15T01:44:32;94392.59;;;-0.57
24278;BMP280;12394;42.692;23.314;2024-01-15T01:46:59;94377.66;;;-0.67
24278;BMP280;12394;42.692;23.314;2024-01-15T01:49:25;94381.41;;;-0.65
24278;BMP280;12394;42.692;23.314;2024-01-15T01:51:52;94390.44;;;-0.55
24278;BMP280;12394;42.692;23.314;2024-01-15T01:54:19;94386.16;;;-0.51
24278;BMP280;12394;42.692;23.314;2024-01-15T01:56:47;94372.78;;;-0.57
24278;BMP280;12394;42.692;23.314;2024-01-15T01:59:14;94369.47;;;-0.57
24278;BMP280;12394;42.692;23.314;2024-01-15T02:01:40;94384.97;;;-0.54
24278;BMP280;12394;42.692;23.314;2024-01-15T02:04:07;94365.91;;;-0.68
24278;BMP280;12394;42.692;23.314;2024-01-15T02:06:33;94364.34;;;-0.85
24278;BMP280;12394;42.692;23.314;2024-01-15T02:08:59;94360.09;;;-0.93
24278;BMP280;12394;42.692;23.314;2024-01-15T02:11:25;94370.31;;;-0.81
24278;BMP280;12394;42.692;23.314;2024-01-15T02:13:50;94372.56;;;-0.79
24278;BMP280;12394;42.692;23.314;2024-01-15T02:16:16;94346.75;;;-0.99
24278;BMP280;12394;42.692;23.314;2024-01-15T02:18:42;94360.88;;;-0.77
24278;BMP280;12394;42.692;23.314;2024-01-15T02:21:09;94350.97;;;-0.78
24278;BMP280;12394;42.692;23.314;2024-01-15T02:23:34;94327.47;;;-0.93
24278;BMP280;12394;42.692;23.314;2024-01-15T02:26:00;94328.16;;;-0.80
24278;BMP280;12394;42.692;23.314;2024-01-15T02:28:26;94312.88;;;-0.61
24278;BMP280;12394;42.692;23.314;2024-01-15T02:30:52;94314.78;;;-0.73
24278;BMP280;12394;42.692;23.314;2024-01-15T02:33:17;94306.47;;;-0.67
24278;BMP280;12394;42.692;23.314;2024-01-15T02:35:42;94307.63;;;-0.80
24278;BMP280;12394;42.692;23.314;2024-01-15T02:38:08;94312.13;;;-0.61
24278;BMP280;12394;42.692;23.314;2024-01-15T02:40:34;94303.69;;;-0.46
24278;BMP280;12394;42.692;23.314;2024-01-15T02:43:00;94311.06;;;-0.60
24278;BMP280;12394;42.692;23.314;2024-01-15T02:45:25;94301.75;;;-0.80
24278;BMP280;12394;42.692;23.314;2024-01-15T02:47:51;94320.97;;;-0.74
24278;BMP280;12394;42.692;23.314;2024-01-15T02:50:16;94313.28;;;-0.74
24278;BMP280;12394;42.692;23.314;2024-01-15T02:52:42;94310.50;;;-0.81
24278;BMP280;12394;42.692;23.314;2024-01-15T02:55:08;94308.94;;;-0.86
24278;BMP280;12394;42.692;23.314;2024-01-15T02:57:34;94309.59;;;-0.89
24278;BMP280;12394;42.692;23.314;2024-01-15T03:00:00;94312.09;;;-0.77
24278;BMP280;12394;42.692;23.314;2024-01-15T03:02:25;94312.09;;;-0.77
24278;BMP280;12394;42.692;23.314;2024-01-15T03:04:51;94296.09;;;-0.86
24278;BMP280;12394;42.692;23.314;2024-01-15T03:07:17;94320.66;;;-0.73
24278;BMP280;12394;42.692;23.314;2024-01-15T03:09:43;94287.53;;;-1.06
24278;BMP280;12394;42.692;23.314;2024-01-15T03:12:08;94313.91;;;-0.93
24278;BMP280;12394;42.692;23.314;2024-01-15T03:14:35;94306.94;;;-0.93
24278;BMP280;12394;42.692;23.314;2024-01-15T03:17:00;94300.47;;;-1.02
24278;BMP280;12394;42.692;23.314;2024-01-15T03:19:26;94303.16;;;-1.11
24278;BMP280;12394;42.692;23.314;2024-01-15T03:21:51;94307.88;;;-1.13
24278;BMP280;12394;42.692;23.314;2024-01-15T03:24:17;94295.38;;;-1.14
24278;BMP280;12394;42.692;23.314;2024-01-15T03:26:42;94307.00;;;-1.05
24278;BMP280;12394;42.692;23.314;2024-01-15T03:29:08;94291.25;;;-1.03
24278;BMP280;12394;42.692;23.314;2024-01-15T03:31:33;94292.94;;;-0.95
24278;BMP280;12394;42.692;23.314;2024-01-15T03:33:59;94293.50;;;-1.02
24278;BMP280;12394;42.692;23.314;2024-01-15T03:36:24;94300.00;;;-0.92
24278;BMP280;12394;42.692;23.314;2024-01-15T03:38:50;94292.97;;;-0.79
24278;BMP280;12394;42.692;23.314;2024-01-15T03:41:15;94280.13;;;-0.79
24278;BMP280;12394;42.692;23.314;2024-01-15T03:43:41;94285.03;;;-0.74
24278;BMP280;12394;42.692;23.314;2024-01-15T03:46:07;94289.41;;;-0.75
24278;BMP280;12394;42.692;23.314;2024-01-15T03:48:32;94286.69;;;-0.66
24278;BMP280;12394;42.692;23.314;2024-01-15T03:50:58;94290.91;;;-0.74
24278;BMP280;12394;42.692;23.314;2024-01-15T03:53:23;94286.34;;;-0.80
24278;BMP280;12394;42.692;23.314;2024-01-15T03:55:49;94286.09;;;-0.91
24278;BMP280;12394;42.692;23.314;2024-01-15T03:58:15;94283.75;;;-0.96
24278;BMP280;12394;42.692;23.314;2024-01-15T04:00:42;94287.69;;;-0.86
24278;BMP280;12394;42.692;23.314;2024-01-15T04:03:07;94296.00;;;-0.90
24278;BMP280;12394;42.692;23.314;2024-01-15T04:05:33;94271.75;;;-0.92
24278;BMP280;12394;42.692;23.314;2024-01-15T04:07:58;94261.81;;;-0.94
24278;BMP280;12394;42.692;23.314;2024-01-15T04:10:24;94273.50;;;-0.96
24278;BMP280;12394;42.692;23.314;2024-01-15T04:12:49;94252.03;;;-1.04
24278;BMP280;12394;42.692;23.314;2024-01-15T04:15:15;94271.75;;;-0.92
24278;BMP280;12394;42.692;23.314;2024-01-15T04:17:40;94263.31;;;-0.93
24278;BMP280;12394;42.692;23.314;2024-01-15T04:20:06;94275.56;;;-0.86
24278;BMP280;12394;42.692;23.314;2024-01-15T04:22:33;94267.13;;;-0.86
24278;BMP280;12394;42.692;23.314;2024-01-15T04:24:59;94265.28;;;-0.86
24278;BMP280;12394;42.692;23.314;2024-01-15T04:27:24;94269.28;;;-0.88
24278;BMP280;12394;42.692;23.314;2024-01-15T04:29:50;94262.41;;;-0.84
24278;BMP280;12394;42.692;23.314;2024-01-15T04:32:15;94278.78;;;-0.89
24278;BMP280;12394;42.692;23.314;2024-01-15T04:34:41;94267.03;;;-0.90
24278;BMP280;12394;42.692;23.314;2024-01-15T04:37:06;94258.41;;;-0.98
24278;BMP280;12394;42.692;23.314;2024-01-15T04:39:32;94263.88;;;-0.99
24278;BMP280;12394;42.692;23.314;2024-01-15T04:41:58;94250.34;;;-1.12
24278;BMP280;12394;42.692;23.314;2024-01-15T04:44:23;94256.75;;;-1.06
24278;BMP280;12394;42.692;23.314;2024-01-15T04:46:49;94265.19;;;-1.05
24278;BMP280;12394;42.692;23.314;2024-01-15T04:49:14;94246.06;;;-1.08
24278;BMP280;12394;42.692;23.314;2024-01-15T04:51:40;94260.69;;;-1.08
24278;BMP280;12394;42.692;23.314;2024-01-15T04:54:05;94265.66;;;-1.15
24278;BMP280;12394;42.692;23.314;2024-01-15T04:56:30;94248.09;;;-1.13
24278;BMP280;12394;42.692;23.314;2024-01-15T04:58:56;94241.34;;;-1.06
24278;BMP280;12394;42.692;23.314;2024-01-15T05:01:21;94237.94;;;-1.10
24278;BMP280;12394;42.692;23.314;2024-01-15T05:03:47;94247.00;;;-1.00
24278;BMP280;12394;42.692;23.314;2024-01-15T05:06:12;94242.59;;;-1.00
24278;BMP280;12394;42.692;23.314;2024-01-15T05:08:38;94246.25;;;-1.01
24278;BMP280;12394;42.692;23.314;2024-01-15T05:11:03;94237.22;;;-0.95
24278;BMP280;12394;42.692;23.314;2024-01-15T05:13:29;94223.47;;;-1.02
24278;BMP280;12394;42.692;23.314;2024-01-15T05:15:54;94234.88;;;-1.00
24278;BMP280;12394;42.692;23.314;2024-01-15T05:18:20;94235.75;;;-0.96
24278;BMP280;12394;42.692;23.314;2024-01-15T05:20:46;94235.56;;;-1.03
24278;BMP280;12394;42.692;23.314;2024-01-15T05:23:11;94242.34;;;-1.10
24278;BMP280;12394;42.692;23.314;2024-01-15T05:25:37;94244.03;;;-1.30
24278;BMP280;12394;42.692;23.314;2024-01-15T05:28:02;94241.38;;;-1.33
24278;BMP280;12394;42.692;23.314;2024-01-15T05:30:28;94249.81;;;-1.33
24278;BMP280;12394;42.692;23.314;2024-01-15T05:32:53;94249.47;;;-1.31
24278;BMP280;12394;42.692;23.314;2024-01-15T05:35:19;94225.47;;;-1.39
24278;BMP280;12394;42.692;23.314;2024-01-15T05:37:45;94227.78;;;-1.34
24278;BMP280;12394;42.692;23.314;2024-01-15T05:40:13;94230.03;;;-1.32
24278;BMP280;12394;42.692;23.314;2024-01-15T05:42:39;94233.75;;;-1.30
24278;BMP280;12394;42.692;23.314;2024-01-15T05:45:06;94241.44;;;-1.30
24278;BMP280;12394;42.692;23.314;2024-01-15T05:47:31;94218.19;;;-1.37
24278;BMP280;12394;42.692;23.314;2024-01-15T05:49:57;94215.13;;;-1.27
24278;BMP280;12394;42.692;23.314;2024-01-15T05:52:23;94211.34;;;-1.17
24278;BMP280;12394;42.692;23.314;2024-01-15T05:54:49;94209.06;;;-1.07
24278;BMP280;12394;42.692;23.314;2024-01-15T05:57:15;94202.44;;;-1.08
24278;BMP280;12394;42.692;23.314;2024-01-15T05:59:40;94200.34;;;-1.18
24278;BMP280;12394;42.692;23.314;2024-01-15T06:02:06;94224.69;;;-1.12
24278;BMP280;12394;42.692;23.314;2024-01-15T06:04:31;94225.00;;;-1.13
24278;BMP280;12394;42.692;23.314;2024-01-15T06:06:57;94225.59;;;-1.20
24278;BMP280;12394;42.692;23.314;2024-01-15T06:09:22;94215.03;;;-1.03
24278;BMP280;12394;42.692;23.314;2024-01-15T06:11:48;94228.81;;;-1.23
24278;BMP280;12394;42.692;23.314;2024-01-15T06:14:13;94224.69;;;-1.27
24278;BMP280;12394;42.692;23.314;2024-01-15T06:16:39;94217.69;;;-1.27
24278;BMP280;12394;42.692;23.314;2024-01-15T06:19:04;94219.63;;;-1.24
24278;BMP280;12394;42.692;23.314;2024-01-15T06:21:30;94204.31;;;-1.20
24278;BMP280;12394;42.692;23.314;2024-01-15T06:23:55;94207.63;;;-1.20
24278;BMP280;12394;42.692;23.314;2024-01-15T06:26:23;94204.44;;;-1.01
24278;BMP280;12394;42.692;23.314;2024-01-15T06:28:50;94178.00;;;-1.02
24278;BMP280;12394;42.692;23.314;2024-01-15T06:31:15;94214.78;;;-0.66
24278;BMP280;12394;42.692;23.314;2024-01-15T06:33:41;94202.19;;;-0.71
24278;BMP280;12394;42.692;23.314;2024-01-15T06:36:07;94226.34;;;-0.25
24278;BMP280;12394;42.692;23.314;2024-01-15T06:38:33;94202.16;;;-0.24
24278;BMP280;12394;42.692;23.314;2024-01-15T06:40:58;94213.09;;;0.08
24278;BMP280;12394;42.692;23.314;2024-01-15T06:43:24;94211.91;;;0.40
24278;BMP280;12394;42.692;23.314;2024-01-15T06:45:49;94216.00;;;0.64
24278;BMP280;12394;42.692;23.314;2024-01-15T06:48:15;94210.31;;;0.74
24278;BMP280;12394;42.692;23.314;2024-01-15T06:50:44;94213.28;;;1.41
24278;BMP280;12394;42.692;23.314;2024-01-15T06:53:10;94187.94;;;0.97
24278;BMP280;12394;42.692;23.314;2024-01-15T06:55:35;94204.09;;;1.17
24278;BMP280;12394;42.692;23.314;2024-01-15T06:58:01;94225.03;;;1.15
24278;BMP280;12394;42.692;23.314;2024-01-15T07:00:26;94233.31;;;1.05
24278;BMP280;12394;42.692;23.314;2024-01-15T07:02:53;94231.22;;;0.92
24278;BMP280;12394;42.692;23.314;2024-01-15T07:05:20;94228.53;;;0.84
24278;BMP280;12394;42.692;23.314;2024-01-15T07:07:45;94236.03;;;0.93
24278;BMP280;12394;42.692;23.314;2024-01-15T07:10:11;94231.38;;;0.79
24278;BMP280;12394;42.692;23.314;2024-01-15T07:12:36;94240.53;;;0.77
24278;BMP280;12394;42.692;23.314;2024-01-15T07:15:02;94216.69;;;0.61
24278;BMP280;12394;42.692;23.314;2024-01-15T07:17:27;94228.38;;;0.97
24278;BMP280;12394;42.692;23.314;2024-01-15T07:19:53;94219.94;;;0.77
24278;BMP280;12394;42.692;23.314;2024-01-15T07:22:18;94232.34;;;0.91
24278;BMP280;12394;42.692;23.314;2024-01-15T07:24:45;94219.38;;;0.87
24278;BMP280;12394;42.692;23.314;2024-01-15T07:27:10;94237.75;;;0.85
24278;BMP280;12394;42.692;23.314;2024-01-15T07:29:36;94220.75;;;0.81
24278;BMP280;12394;42.692;23.314;2024-01-15T07:32:03;94205.09;;;0.89
24278;BMP280;12394;42.692;23.314;2024-01-15T07:34:29;94207.66;;;0.89
24278;BMP280;12394;42.692;23.314;2024-01-15T07:36:55;94191.06;;;0.87
24278;BMP280;12394;42.692;23.314;2024-01-15T07:39:20;94221.81;;;0.99
24278;BMP280;12394;42.692;23.314;2024-01-15T07:41:48;94220.09;;;1.07
24278;BMP280;12394;42.692;23.314;2024-01-15T07:44:13;94221.22;;;1.09
24278;BMP280;12394;42.692;23.314;2024-01-15T07:46:39;94211.00;;;1.13
24278;BMP280;12394;42.692;23.314;2024-01-15T07:49:05;94205.56;;;1.18
24278;BMP280;12394;42.692;23.314;2024-01-15T07:51:30;94222.22;;;1.24
24278;BMP280;12394;42.692;23.314;2024-01-15T07:53:56;94228.00;;;1.40
24278;BMP280;12394;42.692;23.314;2024-01-15T07:56:22;94233.69;;;1.49
24278;BMP280;12394;42.692;23.314;2024-01-15T07:58:47;94230.06;;;1.54
24278;BMP280;12394;42.692;23.314;2024-01-15T08:01:13;94193.00;;;1.62
24278;BMP280;12394;42.692;23.314;2024-01-15T08:03:38;94177.06;;;1.83
24278;BMP280;12394;42.692;23.314;2024-01-15T08:06:05;94191.41;;;2.10
24278;BMP280;12394;42.692;23.314;2024-01-15T08:08:31;94199.03;;;2.29
24278;BMP280;12394;42.692;23.314;2024-01-15T08:10:56;94213.28;;;2.19
24278;BMP280;12394;42.692;23.314;2024-01-15T08:13:22;94219.13;;;2.13
24278;BMP280;12394;42.692;23.314;2024-01-15T08:15:47;94230.53;;;2.12
24278;BMP280;12394;42.692;23.314;2024-01-15T08:18:13;94205.78;;;2.07
24278;BMP280;12394;42.692;23.314;2024-01-15T08:20:38;94227.19;;;2.11
24278;BMP280;12394;42.692;23.314;2024-01-15T08:23:04;94221.09;;;1.97
24278;BMP280;12394;42.692;23.314;2024-01-15T08:25:29;94232.75;;;2.13
24278;BMP280;12394;42.692;23.314;2024-01-15T08:27:56;94232.03;;;2.46
24278;BMP280;12394;42.692;23.314;2024-01-15T08:30:23;94201.47;;;2.48
24278;BMP280;12394;42.692;23.314;2024-01-15T08:32:55;94218.53;;;2.90
24278;BMP280;12394;42.692;23.314;2024-01-15T08:35:20;94206.88;;;3.10
24278;BMP280;12394;42.692;23.314;2024-01-15T08:37:50;94202.56;;;3.21
24278;BMP280;12394;42.692;23.314;2024-01-15T08:40:16;94201.28;;;3.45
24278;BMP280;12394;42.692;23.314;2024-01-15T08:42:42;94188.09;;;3.61
24278;BMP280;12394;42.692;23.314;2024-01-15T08:45:08;94202.63;;;3.76
24278;BMP280;12394;42.692;23.314;2024-01-15T08:47:34;94190.44;;;3.76
24278;BMP280;12394;42.692;23.314;2024-01-15T08:50:00;94199.31;;;3.79
24278;BMP280;12394;42.692;23.314;2024-01-15T08:52:26;94198.63;;;3.85
24278;BMP280;12394;42.692;23.314;2024-01-15T08:54:51;94196.47;;;3.94
24278;BMP280;12394;42.692;23.314;2024-01-15T08:57:17;94193.47;;;3.92
24278;BMP280;12394;42.692;23.314;2024-01-15T08:59:42;94180.53;;;3.89
24278;BMP280;12394;42.692;23.314;2024-01-15T09:02:08;94170.84;;;3.79
24278;BMP280;12394;42.692;23.314;2024-01-15T09:04:34;94170.44;;;3.70
24278;BMP280;12394;42.692;23.314;2024-01-15T09:06:59;94171.16;;;3.67
24278;BMP280;12394;42.692;23.314;2024-01-15T09:09:25;94163.06;;;3.72
24278;BMP280;12394;42.692;23.314;2024-01-15T09:11:51;94152.72;;;3.75
24278;BMP280;12394;42.692;23.314;2024-01-15T09:14:17;94142.47;;;3.89
24278;BMP280;12394;42.692;23.314;2024-01-15T09:16:42;94124.84;;;4.13
24278;BMP280;12394;42.692;23.314;2024-01-15T09:19:08;94115.28;;;4.31
24278;BMP280;12394;42.692;23.314;2024-01-15T09:21:33;94131.22;;;4.43
24278;BMP280;12394;42.692;23.314;2024-01-15T09:23:59;94123.09;;;4.48
24278;BMP280;12394;42.692;23.314;2024-01-15T09:26:24;94107.19;;;4.61
24278;BMP280;12394;42.692;23.314;2024-01-15T09:28:50;94096.50;;;4.59
24278;BMP280;12394;42.692;23.314;2024-01-15T09:31:16;94115.34;;;4.56
24278;BMP280;12394;42.692;23.314;2024-01-15T09:33:43;94101.63;;;4.48
24278;BMP280;12394;42.692;23.314;2024-01-15T09:36:09;94108.66;;;4.44
24278;BMP280;12394;42.692;23.314;2024-01-15T09:38:34;94089.75;;;4.29
24278;BMP280;12394;42.692;23.314;2024-01-15T09:41:00;94088.56;;;4.06
24278;BMP280;12394;42.692;23.314;2024-01-15T09:43:25;94089.25;;;3.92
24278;BMP280;12394;42.692;23.314;2024-01-15T09:45:51;94081.06;;;3.76
24278;BMP280;12394;42.692;23.314;2024-01-15T09:48:18;94080.66;;;3.74
24278;BMP280;12394;42.692;23.314;2024-01-15T09:50:44;94060.66;;;3.64
24278;BMP280;12394;42.692;23.314;2024-01-15T09:53:11;94058.06;;;3.56
24278;BMP280;12394;42.692;23.314;2024-01-15T09:55:37;94052.13;;;3.56
24278;BMP280;12394;42.692;23.314;2024-01-15T09:58:03;94034.75;;;3.49
24278;BMP280;12394;42.692;23.314;2024-01-15T10:00:29;94027.28;;;4.52
24278;BMP280;12394;42.692;23.314;2024-01-15T10:02:58;94047.88;;;5.76
24278;BMP280;12394;42.692;23.314;2024-01-15T10:05:26;94043.84;;;5.61
24278;BMP280;12394;42.692;23.314;2024-01-15T10:07:53;94057.53;;;5.72
24278;BMP280;12394;42.692;23.314;2024-01-15T10:10:20;94042.41;;;6.40
24278;BMP280;12394;42.692;23.314;2024-01-15T10:12:47;94023.56;;;7.92
24278;BMP280;12394;42.692;23.314;2024-01-15T10:15:13;94035.00;;;11.28
24278;BMP280;12394;42.692;23.314;2024-01-15T10:17:39;94022.56;;;13.42
24278;BMP280;12394;42.692;23.314;2024-01-15T10:22:35;94009.31;;;16.78
24278;BMP280;12394;42.692;23.314;2024-01-15T10:25:04;94026.75;;;17.80
24278;BMP280;12394;42.692;23.314;2024-01-15T10:27:30;94007.78;;;17.96
24278;BMP280;12394;42.692;23.314;2024-01-15T10:30:16;93967.91;;;17.46
24278;BMP280;12394;42.692;23.314;2024-01-15T10:32:42;94003.06;;;19.34
24278;BMP280;12394;42.692;23.314;2024-01-15T10:35:22;93999.47;;;20.03
24278;BMP280;12394;42.692;23.314;2024-01-15T10:37:47;93999.00;;;17.60
24278;BMP280;12394;42.692;23.314;2024-01-15T10:40:13;93979.59;;;15.57
24278;BMP280;12394;42.692;23.314;2024-01-15T10:42:39;93985.38;;;15.97
24278;BMP280;12394;42.692;23.314;2024-01-15T10:45:04;93996.25;;;16.83
24278;BMP280;12394;42.692;23.314;2024-01-15T10:47:30;93990.56;;;17.23
24278;BMP280;12394;42.692;23.314;2024-01-15T10:49:56;93985.69;;;17.69
24278;BMP280;12394;42.692;23.314;2024-01-15T10:52:21;93977.09;;;16.23
24278;BMP280;12394;42.692;23.314;2024-01-15T10:54:47;93962.78;;;14.29
24278;BMP280;12394;42.692;23.314;2024-01-15T10:57:15;93965.06;;;12.49
24278;BMP280;12394;42.692;23.314;2024-01-15T10:59:41;93961.66;;;10.70
24278;BMP280;12394;42.692;23.314;2024-01-15T11:02:07;93970.44;;;10.28
24278;BMP280;12394;42.692;23.314;2024-01-15T11:04:33;93957.56;;;9.81
24278;BMP280;12394;42.692;23.314;2024-01-15T11:06:59;93953.09;;;9.82
24278;BMP280;12394;42.692;23.314;2024-01-15T11:09:25;93968.78;;;10.18
24278;BMP280;12394;42.692;23.314;2024-01-15T11:12:10;93952.66;;;10.39
24278;BMP280;12394;42.692;23.314;2024-01-15T11:14:41;93943.50;;;10.47
24278;BMP280;12394;42.692;23.314;2024-01-15T11:17:10;93925.16;;;9.99
24278;BMP280;12394;42.692;23.314;2024-01-15T11:19:46;93922.16;;;9.80
24278;BMP280;12394;42.692;23.314;2024-01-15T11:25:03;93925.91;;;9.79
24278;BMP280;12394;42.692;23.314;2024-01-15T11:27:50;93928.97;;;9.58
24278;BMP280;12394;42.692;23.314;2024-01-15T11:30:17;93913.66;;;9.21
24278;BMP280;12394;42.692;23.314;2024-01-15T11:32:43;93917.56;;;8.89
24278;BMP280;12394;42.692;23.314;2024-01-15T11:35:12;93921.09;;;8.79
24278;BMP280;12394;42.692;23.314;2024-01-15T11:40:13;93911.91;;;8.95
24278;BMP280;12394;42.692;23.314;2024-01-15T11:42:39;93907.16;;;8.66
24278;BMP280;12394;42.692;23.314;2024-01-15T11:45:05;93898.00;;;8.58
24278;BMP280;12394;42.692;23.314;2024-01-15T11:48:09;93904.94;;;8.41
24278;BMP280;12394;42.692;23.314;2024-01-15T11:50:30;93893.28;;;8.23
24278;BMP280;12394;42.692;23.314;2024-01-15T11:53:00;93906.19;;;8.33
24278;BMP280;12394;42.692;23.314;2024-01-15T11:55:34;93899.19;;;8.30
24278;BMP280;12394;42.692;23.314;2024-01-15T11:58:01;93882.97;;;7.92
24278;BMP280;12394;42.692;23.314;2024-01-15T12:00:28;93885.50;;;7.69
24278;BMP280;12394;42.692;23.314;2024-01-15T12:02:54;93889.69;;;7.63
24278;BMP280;12394;42.692;23.314;2024-01-15T12:05:21;93860.06;;;7.23
24278;BMP280;12394;42.692;23.314;2024-01-15T12:07:48;93866.22;;;7.36
24278;BMP280;12394;42.692;23.314;2024-01-15T12:10:16;93873.75;;;7.27
24278;BMP280;12394;42.692;23.314;2024-01-15T12:15:21;93870.88;;;7.22
24278;BMP280;12394;42.692;23.314;2024-01-15T12:17:47;93867.09;;;7.26
24278;BMP280;12394;42.692;23.314;2024-01-15T12:20:15;93857.63;;;7.09
24278;BMP280;12394;42.692;23.314;2024-01-15T12:22:44;93867.38;;;7.01
24278;BMP280;12394;42.692;23.314;2024-01-15T12:25:10;93866.31;;;6.99
24278;BMP280;12394;42.692;23.314;2024-01-15T12:27:35;93864.41;;;7.03
24278;BMP280;12394;42.692;23.314;2024-01-15T12:30:01;93862.97;;;6.98
24278;BMP280;12394;42.692;23.314;2024-01-15T12:32:27;93860.84;;;6.90
24278;BMP280;12394;42.692;23.314;2024-01-15T12:34:52;93813.53;;;6.68
24278;BMP280;12394;42.692;23.314;2024-01-15T12:37:18;93842.22;;;6.95
24278;BMP280;12394;42.692;23.314;2024-01-15T12:39:44;93846.75;;;6.87
24278;BMP280;12394;42.692;23.314;2024-01-15T12:42:10;93836.28;;;6.94
24278;BMP280;12394;42.692;23.314;2024-01-15T12:44:36;93842.75;;;7.09
24278;BMP280;12394;42.692;23.314;2024-01-15T12:47:04;93816.47;;;7.04
24278;BMP280;12394;42.692;23.314;2024-01-15T12:49:30;93834.50;;;7.18
24278;BMP280;12394;42.692;23.314;2024-01-15T12:51:59;93848.91;;;7.26
24278;BMP280;12394;42.692;23.314;2024-01-15T12:54:25;93842.59;;;7.24
24278;BMP280;12394;42.692;23.314;2024-01-15T12:56:51;93823.91;;;7.02
24278;BMP280;12394;42.692;23.314;2024-01-15T12:59:18;93826.44;;;7.09
24278;BMP280;12394;42.692;23.314;2024-01-15T13:01:45;93802.50;;;6.91
24278;BMP280;12394;42.692;23.314;2024-01-15T13:04:11;93826.84;;;7.07
24278;BMP280;12394;42.692;23.314;2024-01-15T13:06:37;93830.91;;;7.08
24278;BMP280;12394;42.692;23.314;2024-01-15T13:09:04;93822.81;;;7.03
24278;BMP280;12394;42.692;23.314;2024-01-15T13:11:35;93816.16;;;6.98
24278;BMP280;12394;42.692;23.314;2024-01-15T13:14:01;93809.19;;;6.92
24278;BMP280;12394;42.692;23.314;2024-01-15T13:16:26;93790.34;;;6.84
24278;BMP280;12394;42.692;23.314;2024-01-15T13:18:55;93812.56;;;6.89
24278;BMP280;12394;42.692;23.314;2024-01-15T13:21:22;93803.72;;;6.83
24278;BMP280;12394;42.692;23.314;2024-01-15T13:23:48;93797.09;;;6.78
24278;BMP280;12394;42.692;23.314;2024-01-15T13:26:13;93783.91;;;6.62
24278;BMP280;12394;42.692;23.314;2024-01-15T13:28:39;93803.88;;;6.68
24278;BMP280;12394;42.692;23.314;2024-01-15T13:31:05;93804.06;;;6.85
24278;BMP280;12394;42.692;23.314;2024-01-15T13:33:30;93800.47;;;6.75
24278;BMP280;12394;42.692;23.314;2024-01-15T13:35:56;93807.44;;;6.82
24278;BMP280;12394;42.692;23.314;2024-01-15T13:38:21;93803.41;;;6.77
24278;BMP280;12394;42.692;23.314;2024-01-15T13:40:47;93797.13;;;6.75
24278;BMP280;12394;42.692;23.314;2024-01-15T13:43:12;93796.81;;;6.69
24278;BMP280;12394;42.692;23.314;2024-01-15T13:45:41;93797.88;;;6.75
24278;BMP280;12394;42.692;23.314;2024-01-15T13:48:06;93782.38;;;6.64
24278;BMP280;12394;42.692;23.314;2024-01-15T13:50:36;93784.25;;;6.64
24278;BMP280;12394;42.692;23.314;2024-01-15T13:53:03;93780.47;;;6.72
24278;BMP280;12394;42.692;23.314;2024-01-15T13:55:29;93773.13;;;6.63
24278;BMP280;12394;42.692;23.314;2024-01-15T13:57:55;93781.50;;;6.78
24278;BMP280;12394;42.692;23.314;2024-01-15T14:00:20;93780.16;;;6.97
24278;BMP280;12394;42.692;23.314;2024-01-15T14:02:47;93773.19;;;6.90
24278;BMP280;12394;42.692;23.314;2024-01-15T14:05:13;93768.13;;;6.80
24278;BMP280;12394;42.692;23.314;2024-01-15T14:07:39;93754.75;;;6.81